createdAt,value
2022-07-30T00:00:31.515Z,8.13
2022-07-30T00:02:59.624Z,8.23
2022-07-30T00:05:28.156Z,8.20
2022-07-30T00:07:56.321Z,8.77
2022-07-30T00:10:24.704Z,7.77
2022-07-30T00:12:52.929Z,8.40
2022-07-30T00:15:22.813Z,8.70
2022-07-30T00:17:51.376Z,9.10
2022-07-30T00:20:19.473Z,9.83
2022-07-30T00:22:48.034Z,9.37
2022-07-30T00:25:18.778Z,10.37
2022-07-30T00:27:47.868Z,9.90
2022-07-30T00:30:17.140Z,8.77
2022-07-30T00:32:46.929Z,9.17
2022-07-30T00:35:15.176Z,10.67
2022-07-30T00:37:43.587Z,9.47
2022-07-30T00:40:12.650Z,10.30
2022-07-30T00:42:43.370Z,10.47
2022-07-30T00:45:13.043Z,10.23
2022-07-30T00:47:41.630Z,9.73
2022-07-30T00:50:14.704Z,9.97
2022-07-30T00:52:43.951Z,10.03
2022-07-30T00:55:14.817Z,9.47
2022-07-30T00:57:43.886Z,10.30
2022-07-30T01:00:15.227Z,8.83
2022-07-30T01:02:43.430Z,9.30
2022-07-30T01:05:13.650Z,9.87
2022-07-30T01:07:42.106Z,8.63
2022-07-30T01:10:11.997Z,9.60
2022-07-30T01:12:40.861Z,8.77
2022-07-30T01:15:11.967Z,9.33
2022-07-30T01:17:40.746Z,9.37
2022-07-30T01:20:16.245Z,8.87
2022-07-30T01:22:52.664Z,9.40
2022-07-30T01:25:29.213Z,9.97
2022-07-30T01:28:03.896Z,9.40
2022-07-30T01:30:37.061Z,10.07
2022-07-30T01:33:07.403Z,8.80
2022-07-30T01:35:36.851Z,9.40
2022-07-30T01:38:07.931Z,9.30
2022-07-30T01:40:38.351Z,8.80
2022-07-30T01:43:10.036Z,9.07
2022-07-30T01:45:41.580Z,9.87
2022-07-30T01:48:14.828Z,9.40
2022-07-30T01:50:46.832Z,9.50
2022-07-30T01:53:18.517Z,10.13
2022-07-30T01:55:47.793Z,9.67
2022-07-30T01:58:19.780Z,9.73
2022-07-30T02:00:50.338Z,9.00
2022-07-30T02:03:18.989Z,9.80
2022-07-30T02:05:55.593Z,9.87
2022-07-30T02:08:30.340Z,9.63
2022-07-30T02:11:05.855Z,10.10
2022-07-30T02:13:42.582Z,9.63
2022-07-30T02:16:16.503Z,10.20
2022-07-30T02:18:57.013Z,10.50
2022-07-30T02:21:36.377Z,10.37
2022-07-30T02:24:08.789Z,10.97
2022-07-30T02:26:39.466Z,10.97
2022-07-30T02:29:11.612Z,10.23
2022-07-30T02:31:41.760Z,11.00
2022-07-30T02:34:12.270Z,10.60
2022-07-30T02:36:43.412Z,11.00
2022-07-30T02:39:15.049Z,11.27
2022-07-30T02:41:49.519Z,11.20
2022-07-30T02:44:23.079Z,10.67
2022-07-30T02:46:52.565Z,11.60
2022-07-30T02:49:23.981Z,11.27
2022-07-30T02:51:53.524Z,11.60
2022-07-30T02:54:24.242Z,11.20
2022-07-30T02:56:54.692Z,10.83
2022-07-30T02:59:26.102Z,10.97
2022-07-30T03:01:55.827Z,11.30
2022-07-30T03:04:25.265Z,10.53
2022-07-30T03:06:54.211Z,11.37
2022-07-30T03:09:23.176Z,12.20
2022-07-30T03:11:54.271Z,12.10
2022-07-30T03:14:24.476Z,11.70
2022-07-30T03:16:59.170Z,11.13
2022-07-30T03:19:30.865Z,10.80
2022-07-30T03:22:00.525Z,10.67
2022-07-30T03:24:29.879Z,10.73
2022-07-30T03:27:01.242Z,11.40
2022-07-30T03:29:32.983Z,10.67
2022-07-30T03:32:02.777Z,10.00
2022-07-30T03:34:34.443Z,10.33
2022-07-30T03:37:05.730Z,12.90
2022-07-30T03:39:35.908Z,14.43
2022-07-30T03:42:05.267Z,13.30
2022-07-30T03:44:36.285Z,15.00
2022-07-30T03:47:07.519Z,15.27
2022-07-30T03:49:35.966Z,15.50
2022-07-30T03:52:05.467Z,16.00
2022-07-30T03:54:34.729Z,14.93
2022-07-30T03:57:03.977Z,12.37
2022-07-30T03:59:35.356Z,12.87
2022-07-30T04:02:07.039Z,12.23
2022-07-30T04:04:35.645Z,12.17
2022-07-30T04:07:04.178Z,11.97
2022-07-30T04:09:32.708Z,13.17
2022-07-30T04:12:00.937Z,12.40
2022-07-30T04:14:39.554Z,11.40
2022-07-30T04:17:14.529Z,11.60
2022-07-30T04:19:50.492Z,11.07
2022-07-30T04:22:23.255Z,11.10
2022-07-30T04:24:55.477Z,10.60
2022-07-30T04:27:27.082Z,11.03
2022-07-30T04:29:58.671Z,12.50
2022-07-30T04:32:29.112Z,11.80
2022-07-30T04:34:58.116Z,12.87
2022-07-30T04:37:28.442Z,12.27
2022-07-30T04:39:57.840Z,12.77
2022-07-30T04:42:27.095Z,12.80
2022-07-30T04:44:56.115Z,13.20
2022-07-30T04:47:25.951Z,12.57
2022-07-30T04:49:57.169Z,14.17
2022-07-30T04:52:26.164Z,13.57
2022-07-30T04:54:58.441Z,16.77
2022-07-30T04:57:27.866Z,17.07
2022-07-30T04:59:56.423Z,16.17
2022-07-30T05:02:28.447Z,16.43
2022-07-30T05:07:42.475Z,17.13
2022-07-30T05:10:12.605Z,16.07
2022-07-30T05:12:40.870Z,15.87
2022-07-30T05:15:11.018Z,15.27
2022-07-30T05:17:39.593Z,16.70
2022-07-30T05:20:11.529Z,17.00
2022-07-30T05:22:39.807Z,15.70
2022-07-30T05:25:16.054Z,15.73
2022-07-30T05:27:44.642Z,15.80
2022-07-30T05:30:13.558Z,16.03
2022-07-30T05:32:42.058Z,18.63
2022-07-30T05:35:12.627Z,17.40
2022-07-30T05:37:40.877Z,18.37
2022-07-30T05:40:10.095Z,19.13
2022-07-30T05:42:38.181Z,17.30
2022-07-30T05:45:09.566Z,18.23
2022-07-30T05:47:37.710Z,18.70
2022-07-30T05:50:06.869Z,18.47
2022-07-30T05:52:37.030Z,18.27
2022-07-30T05:55:05.617Z,17.83
2022-07-30T05:57:37.447Z,17.97
2022-07-30T06:00:06.648Z,17.43
2022-07-30T06:02:34.799Z,16.87
2022-07-30T06:05:03.393Z,15.97
2022-07-30T06:07:31.735Z,17.80
2022-07-30T06:10:01.733Z,15.33
2022-07-30T06:12:30.576Z,14.40
2022-07-30T06:14:59.866Z,15.00
2022-07-30T06:17:28.100Z,14.83
2022-07-30T06:19:57.380Z,14.40
2022-07-30T06:22:26.218Z,12.93
2022-07-30T06:24:54.494Z,14.50
2022-07-30T06:27:26.068Z,13.10
2022-07-30T06:29:54.505Z,14.17
2022-07-30T06:32:22.840Z,13.40
2022-07-30T06:34:59.618Z,12.50
2022-07-30T06:37:58.690Z,14.03
2022-07-30T06:40:21.502Z,13.43
2022-07-30T06:42:51.592Z,12.17
2022-07-30T06:45:20.233Z,12.07
2022-07-30T06:47:48.735Z,12.90
2022-07-30T06:50:18.925Z,12.57
2022-07-30T06:52:47.394Z,12.13
2022-07-30T06:55:15.690Z,11.93
2022-07-30T06:57:43.929Z,13.33
2022-07-30T07:00:15.535Z,11.77
2022-07-30T07:02:47.281Z,10.90
2022-07-30T07:05:21.467Z,12.10
2022-07-30T07:07:58.633Z,11.10
2022-07-30T07:10:28.061Z,12.60
2022-07-30T07:12:56.878Z,13.93
2022-07-30T07:15:36.187Z,11.30
2022-07-30T07:18:07.777Z,12.03
2022-07-30T07:20:36.512Z,11.33
2022-07-30T07:23:09.395Z,10.30
2022-07-30T07:25:41.848Z,11.50
2022-07-30T07:28:13.142Z,13.80
2022-07-30T07:30:44.273Z,12.27
2022-07-30T07:33:15.631Z,12.87
2022-07-30T07:35:48.812Z,10.50
2022-07-30T07:38:19.390Z,12.23
2022-07-30T07:40:47.771Z,10.97
2022-07-30T07:43:18.234Z,9.00
2022-07-30T07:45:50.463Z,10.10
2022-07-30T07:48:21.973Z,10.23
2022-07-30T07:50:50.344Z,9.70
2022-07-30T07:53:20.380Z,8.67
2022-07-30T07:55:48.658Z,8.90
2022-07-30T07:58:25.359Z,15.63
2022-07-30T08:00:56.158Z,18.87
2022-07-30T08:03:24.911Z,9.60
2022-07-30T08:05:59.020Z,10.80
2022-07-30T08:08:36.688Z,9.30
2022-07-30T08:11:06.136Z,10.13
2022-07-30T08:13:51.458Z,17.15
2022-07-30T08:16:23.110Z,18.70
2022-07-30T08:18:51.439Z,10.02
2022-07-30T08:21:19.858Z,9.68
2022-07-30T08:23:48.231Z,10.00
2022-07-30T08:26:16.458Z,12.20
2022-07-30T08:28:47.912Z,12.13
2022-07-30T08:31:16.347Z,12.10
2022-07-30T08:33:46.253Z,10.97
2022-07-30T08:36:16.598Z,9.83
2022-07-30T08:38:45.785Z,8.97
2022-07-30T08:41:14.545Z,9.50
2022-07-30T08:43:54.167Z,9.90
2022-07-30T08:46:30.458Z,8.80
2022-07-30T08:49:12.416Z,8.80
2022-07-30T08:51:43.078Z,8.60
2022-07-30T08:54:12.518Z,9.20
2022-07-30T08:56:41.553Z,8.60
2022-07-30T08:59:10.532Z,9.02
2022-07-30T09:01:41.500Z,9.25
2022-07-30T09:04:11.903Z,8.32
2022-07-30T09:06:40.959Z,7.75
2022-07-30T09:09:11.453Z,8.02
2022-07-30T09:11:39.770Z,7.53
2022-07-30T09:14:12.316Z,9.18
2022-07-30T09:16:41.991Z,7.90
2022-07-30T09:19:17.305Z,9.20
2022-07-30T09:21:59.099Z,9.25
2022-07-30T09:24:30.071Z,9.05
2022-07-30T09:27:00.131Z,9.07
2022-07-30T09:29:30.404Z,8.40
2022-07-30T09:32:00.009Z,8.57
2022-07-30T09:34:32.693Z,7.47
2022-07-30T09:37:03.631Z,8.25
2022-07-30T09:39:33.214Z,8.50
2022-07-30T09:42:02.354Z,8.90
2022-07-30T09:44:34.006Z,9.68
2022-07-30T09:47:12.020Z,9.57
2022-07-30T09:49:47.126Z,9.07
2022-07-30T09:52:29.688Z,7.50
2022-07-30T09:54:59.061Z,7.40
2022-07-30T09:57:30.319Z,7.87
2022-07-30T10:00:01.738Z,7.87
2022-07-30T10:02:32.819Z,9.53
2022-07-30T10:05:20.599Z,9.00
2022-07-30T10:07:53.209Z,9.57
2022-07-30T10:10:25.495Z,9.60
2022-07-30T10:13:01.301Z,9.87
2022-07-30T10:15:35.554Z,9.03
2022-07-30T10:18:06.889Z,9.67
2022-07-30T10:20:39.243Z,8.53
2022-07-30T10:23:10.334Z,8.97
2022-07-30T10:25:49.399Z,8.27
2022-07-30T10:28:24.110Z,8.20
2022-07-30T10:30:53.466Z,7.93
2022-07-30T10:33:35.248Z,8.33
2022-07-30T10:36:13.112Z,6.40
2022-07-30T10:38:46.407Z,7.20
2022-07-30T10:41:47.315Z,6.50
2022-07-30T10:44:42.882Z,6.50
2022-07-30T10:47:16.543Z,6.80
2022-07-30T10:50:12.560Z,6.30
2022-07-30T10:52:52.958Z,5.60
2022-07-30T10:55:37.166Z,6.60
2022-07-30T10:58:09.708Z,5.57
2022-07-30T11:01:01.592Z,7.28
2022-07-30T11:03:40.644Z,6.43
2022-07-30T11:06:29.716Z,6.97
2022-07-30T11:08:59.798Z,6.72
2022-07-30T11:12:02.285Z,5.95
2022-07-30T11:14:58.464Z,5.80
2022-07-30T11:18:04.965Z,6.75
2022-07-30T11:20:48.323Z,6.10
2022-07-30T11:23:41.126Z,4.90
2022-07-30T11:28:58.472Z,5.38
2022-07-30T11:31:58.016Z,5.50
2022-07-30T11:34:30.535Z,5.35
2022-07-30T11:37:18.661Z,5.28
2022-07-30T11:40:09.446Z,4.93
2022-07-30T11:42:40.718Z,4.55
2022-07-30T11:45:27.218Z,4.63
2022-07-30T11:47:58.089Z,5.25
2022-07-30T11:50:30.156Z,4.97
2022-07-30T11:53:02.728Z,5.38
2022-07-30T11:55:34.765Z,5.20
2022-07-30T11:58:07.346Z,4.20
2022-07-30T12:00:38.103Z,4.05
2022-07-30T12:03:12.590Z,4.50
2022-07-30T12:05:41.276Z,4.20
2022-07-30T12:08:31.391Z,4.00
2022-07-30T12:11:01.410Z,4.10
2022-07-30T12:13:44.800Z,3.70
2022-07-30T12:16:16.010Z,4.80
2022-07-30T12:18:46.674Z,4.30
2022-07-30T12:21:17.350Z,4.50
2022-07-30T12:23:56.190Z,4.03
2022-07-30T12:26:50.785Z,5.90
2022-07-30T12:29:21.246Z,3.57
2022-07-30T12:31:50.554Z,4.23
2022-07-30T12:34:23.175Z,3.63
2022-07-30T12:36:51.837Z,3.90
2022-07-30T12:39:24.994Z,4.30
2022-07-30T12:41:56.876Z,4.30
2022-07-30T12:44:41.703Z,4.37
2022-07-30T12:47:23.864Z,3.60
2022-07-30T12:49:53.293Z,4.17
2022-07-30T12:52:28.272Z,3.80
2022-07-30T12:55:03.679Z,3.20
2022-07-30T12:57:55.373Z,3.80
2022-07-30T13:00:26.697Z,3.70
2022-07-30T13:02:55.611Z,3.63
2022-07-30T13:05:44.303Z,3.70
2022-07-30T13:08:12.726Z,3.43
2022-07-30T13:10:55.074Z,3.60
2022-07-30T13:13:23.837Z,3.37
2022-07-30T13:16:02.496Z,3.67
2022-07-30T13:18:31.429Z,4.00
2022-07-30T13:20:59.911Z,4.20
2022-07-30T13:23:29.861Z,3.93
2022-07-30T13:25:58.774Z,3.80
2022-07-30T13:28:28.383Z,3.40
2022-07-30T13:31:00.370Z,4.40
2022-07-30T13:33:31.702Z,3.73
2022-07-30T13:35:59.942Z,3.63
2022-07-30T13:38:28.898Z,3.90
2022-07-30T13:41:02.223Z,4.00
2022-07-30T13:43:32.079Z,3.80
2022-07-30T13:46:03.040Z,4.20
2022-07-30T13:48:35.922Z,4.10
2022-07-30T13:51:08.386Z,3.57
2022-07-30T13:53:36.671Z,4.17
2022-07-30T13:56:05.584Z,4.53
2022-07-30T13:58:40.846Z,4.10
2022-07-30T14:01:09.119Z,3.80
2022-07-30T14:03:50.637Z,3.57
2022-07-30T14:06:19.428Z,3.60
2022-07-30T14:08:48.107Z,3.97
2022-07-30T14:11:17.907Z,3.87
2022-07-30T14:13:46.576Z,3.53
2022-07-30T14:16:42.384Z,4.00
2022-07-30T14:19:07.395Z,4.10
2022-07-30T14:21:35.945Z,4.47
2022-07-30T14:24:08.860Z,3.77
2022-07-30T14:26:37.053Z,4.00
2022-07-30T14:29:09.634Z,4.40
2022-07-30T14:31:38.573Z,4.07
2022-07-30T14:34:08.865Z,3.93
2022-07-30T14:36:37.700Z,3.60
2022-07-30T14:39:06.370Z,4.50
2022-07-30T14:41:37.249Z,5.60
2022-07-30T14:44:06.172Z,5.47
2022-07-30T14:46:35.846Z,4.60
2022-07-30T14:49:23.941Z,4.00
2022-07-30T14:51:58.137Z,3.87
2022-07-30T14:54:27.919Z,4.10
2022-07-30T14:56:59.069Z,4.87
2022-07-30T14:59:28.956Z,4.63
2022-07-30T15:01:57.541Z,3.40
2022-07-30T15:04:27.496Z,3.40
2022-07-30T15:06:59.910Z,3.30
2022-07-30T15:09:29.791Z,3.40
2022-07-30T15:12:08.414Z,3.90
2022-07-30T15:14:40.181Z,2.97
2022-07-30T15:17:09.317Z,2.87
2022-07-30T15:19:50.428Z,2.50
2022-07-30T15:22:20.207Z,2.00
2022-07-30T15:24:48.705Z,2.37
2022-07-30T15:27:17.460Z,2.60
2022-07-30T15:29:45.738Z,2.43
2022-07-30T15:32:14.196Z,2.50
2022-07-30T15:34:43.890Z,2.50
2022-07-30T15:37:12.065Z,3.60
2022-07-30T15:39:47.474Z,2.77
2022-07-30T15:42:15.610Z,3.50
2022-07-30T15:44:48.757Z,3.63
2022-07-30T15:47:17.880Z,3.73
2022-07-30T15:49:47.987Z,4.07
2022-07-30T15:52:16.274Z,3.70
2022-07-30T15:54:45.947Z,3.80
2022-07-30T15:57:14.288Z,4.53
2022-07-30T15:59:42.728Z,3.40
2022-07-30T16:02:13.588Z,4.30
2022-07-30T16:04:42.139Z,3.33
2022-07-30T16:07:18.124Z,3.13
2022-07-30T16:09:47.832Z,3.80
2022-07-30T16:12:16.350Z,2.77
2022-07-30T16:14:44.760Z,2.90
2022-07-30T16:17:14.943Z,2.90
2022-07-30T16:19:45.105Z,3.37
2022-07-30T16:22:21.610Z,2.77
2022-07-30T16:24:54.185Z,3.67
2022-07-30T16:27:26.417Z,3.13
2022-07-30T16:32:49.019Z,2.97
2022-07-30T16:35:18.707Z,2.60
2022-07-30T16:37:47.184Z,2.87
2022-07-30T16:40:17.036Z,2.07
2022-07-30T16:42:45.254Z,2.53
2022-07-30T16:45:13.614Z,2.13
2022-07-30T16:47:42.287Z,2.30
2022-07-30T16:50:12.414Z,2.40
2022-07-30T16:52:44.653Z,2.47
2022-07-30T16:55:13.064Z,2.43
2022-07-30T16:57:43.013Z,2.47
2022-07-30T17:00:14.813Z,2.07
2022-07-30T17:02:44.296Z,2.50
2022-07-30T17:05:13.917Z,2.30
2022-07-30T17:07:42.400Z,2.80
2022-07-30T17:10:12.872Z,1.93
2022-07-30T17:12:50.913Z,1.87
2022-07-30T17:15:19.518Z,1.90
2022-07-30T17:17:48.398Z,2.40
2022-07-30T17:20:21.037Z,2.20
2022-07-30T17:22:49.153Z,2.23
2022-07-30T17:25:18.389Z,3.00
2022-07-30T17:27:50.351Z,3.37
2022-07-30T17:30:18.752Z,3.80
2022-07-30T17:32:48.317Z,2.93
2022-07-30T17:35:16.594Z,2.87
2022-07-30T17:37:45.044Z,3.10
2022-07-30T17:40:28.989Z,3.40
2022-07-30T17:43:07.654Z,5.27
2022-07-30T17:45:39.234Z,8.87
2022-07-30T17:48:09.475Z,7.10
2022-07-30T17:50:37.975Z,3.00
2022-07-30T17:53:07.896Z,3.40
2022-07-30T17:55:36.180Z,2.87
2022-07-30T17:58:06.821Z,3.70
2022-07-30T18:00:38.994Z,3.10
2022-07-30T18:03:08.314Z,3.40
2022-07-30T18:05:42.325Z,2.80
2022-07-30T18:08:10.795Z,2.60
2022-07-30T18:10:40.687Z,2.97
2022-07-30T18:13:26.099Z,2.90
2022-07-30T18:15:58.747Z,3.00
2022-07-30T18:18:30.019Z,2.30
2022-07-30T18:20:58.536Z,2.37
2022-07-30T18:23:34.676Z,2.53
2022-07-30T18:26:40.419Z,2.23
2022-07-30T18:29:14.461Z,2.90
2022-07-30T18:31:43.157Z,2.23
2022-07-30T18:34:13.375Z,2.17
2022-07-30T18:36:41.519Z,2.13
2022-07-30T18:39:11.037Z,2.30
2022-07-30T18:41:40.135Z,2.50
2022-07-30T18:44:10.233Z,2.80
2022-07-30T18:46:40.834Z,2.40
2022-07-30T18:49:33.931Z,2.67
2022-07-30T18:51:59.466Z,2.20
2022-07-30T18:54:27.669Z,2.23
2022-07-30T18:56:55.889Z,2.30
2022-07-30T18:59:27.482Z,2.43
2022-07-30T19:01:56.572Z,2.43
2022-07-30T19:04:24.777Z,2.73
2022-07-30T19:06:53.143Z,2.60
2022-07-30T19:09:21.418Z,2.80
2022-07-30T19:11:49.808Z,2.40
2022-07-30T19:14:18.045Z,2.60
2022-07-30T19:16:49.311Z,2.53
2022-07-30T19:19:19.129Z,2.50
2022-07-30T19:21:47.568Z,3.47
2022-07-30T19:24:15.952Z,3.33
2022-07-30T19:26:44.921Z,4.03
2022-07-30T19:29:14.854Z,3.17
2022-07-30T19:31:43.153Z,3.03
2022-07-30T19:34:12.870Z,2.50
2022-07-30T19:36:41.395Z,2.47
2022-07-30T19:39:13.238Z,2.70
2022-07-30T19:41:51.007Z,2.60
2022-07-30T19:44:19.940Z,2.67
2022-07-30T19:46:48.652Z,3.00
2022-07-30T19:49:19.436Z,2.93
2022-07-30T19:52:10.666Z,2.67
2022-07-30T19:54:36.689Z,3.10
2022-07-30T19:57:05.846Z,3.10
2022-07-30T19:59:55.803Z,3.03
2022-07-30T20:02:22.994Z,3.73
2022-07-30T20:04:53.635Z,4.40
2022-07-30T20:07:23.221Z,4.10
2022-07-30T20:09:58.329Z,4.37
2022-07-30T20:12:26.649Z,4.33
2022-07-30T20:14:54.839Z,3.70
2022-07-30T20:17:24.602Z,4.47
2022-07-30T20:19:59.540Z,4.50
2022-07-30T20:22:32.401Z,4.73
2022-07-30T20:25:02.758Z,4.40
2022-07-30T20:27:37.357Z,3.90
2022-07-30T20:30:08.945Z,4.20
2022-07-30T20:32:37.513Z,4.17
2022-07-30T20:35:10.442Z,4.10
2022-07-30T20:37:54.809Z,3.80
2022-07-30T20:40:24.552Z,3.93
2022-07-30T20:42:55.494Z,3.70
2022-07-30T20:45:25.290Z,3.60
2022-07-30T20:48:08.461Z,4.60
2022-07-30T20:50:50.026Z,3.80
2022-07-30T20:53:20.825Z,3.60
2022-07-30T20:55:49.102Z,4.30
2022-07-30T20:58:17.734Z,3.90
2022-07-30T21:00:49.513Z,4.70
2022-07-30T21:03:21.498Z,4.00
2022-07-30T21:05:53.467Z,3.53
2022-07-30T21:08:25.094Z,4.90
2022-07-30T21:10:55.483Z,5.03
2022-07-30T21:13:26.085Z,5.30
2022-07-30T21:16:02.355Z,5.57
2022-07-30T21:18:32.811Z,5.07
2022-07-30T21:21:04.963Z,4.17
2022-07-30T21:23:33.999Z,4.83
2022-07-30T21:26:13.404Z,4.10
2022-07-30T21:28:42.246Z,5.40
2022-07-30T21:31:11.011Z,4.73
2022-07-30T21:33:40.058Z,4.27
2022-07-30T21:38:58.430Z,3.90
2022-07-30T21:41:40.010Z,3.90
2022-07-30T21:44:09.844Z,4.33
2022-07-30T21:46:40.732Z,4.33
2022-07-30T21:49:10.501Z,4.17
2022-07-30T21:51:41.057Z,4.30
2022-07-30T21:54:13.913Z,5.40
2022-07-30T21:56:45.525Z,5.73
2022-07-30T21:59:13.935Z,6.10
2022-07-30T22:04:30.638Z,5.33
2022-07-30T22:07:02.310Z,4.17
2022-07-30T22:09:34.111Z,4.20
2022-07-30T22:12:09.367Z,4.50
2022-07-30T22:14:40.254Z,5.03
2022-07-30T22:17:14.733Z,5.00
2022-07-30T22:19:54.636Z,5.00
2022-07-30T22:22:26.602Z,4.13
2022-07-30T22:24:57.155Z,4.53
2022-07-30T22:27:28.007Z,5.10
2022-07-30T22:30:10.465Z,5.43
2022-07-30T22:32:44.076Z,4.87
2022-07-30T22:35:17.392Z,5.50
2022-07-30T22:38:02.604Z,4.90
2022-07-30T22:40:31.095Z,4.90
2022-07-30T22:43:04.080Z,5.87
2022-07-30T22:45:48.730Z,4.80
2022-07-30T22:48:27.492Z,5.43
2022-07-30T22:50:57.103Z,5.50
2022-07-30T22:54:10.906Z,6.50
2022-07-30T22:56:20.360Z,5.73
2022-07-30T22:58:52.357Z,5.37
2022-07-30T23:01:20.659Z,5.80
2022-07-30T23:03:51.698Z,5.53
2022-07-30T23:06:22.184Z,4.90
2022-07-30T23:08:52.580Z,5.20
2022-07-30T23:11:21.437Z,4.80
2022-07-30T23:12:28.084Z,4.93
2022-07-30T23:12:31.756Z,3.90
2022-07-30T23:13:53.767Z,4.87
2022-07-30T23:16:22.161Z,4.87
2022-07-30T23:18:50.323Z,4.50
2022-07-30T23:21:18.494Z,5.93
2022-07-30T23:23:46.581Z,4.33
2022-07-30T23:26:35.173Z,5.70
2022-07-30T23:29:03.400Z,4.83
2022-07-30T23:31:31.679Z,5.43
2022-07-30T23:33:59.875Z,4.90
2022-07-30T23:36:28.117Z,4.80
2022-07-30T23:38:56.364Z,4.67
2022-07-30T23:41:29.821Z,5.13
2022-07-30T23:44:00.458Z,5.13
2022-07-30T23:46:28.791Z,5.13
2022-07-30T23:48:56.873Z,5.10
2022-07-30T23:51:25.154Z,6.17
2022-07-30T23:54:01.993Z,6.80
2022-07-30T23:56:30.260Z,5.80
2022-07-30T23:59:00.172Z,5.67
